sensor_id;sensor_type;location;lat;lon;timestamp;P1;durP1;ratioP1;P2;durP2;ratioP2
35901;SDS011;50775;44.112;12.316;2022-07-21T00:00:57;3.40;;;2.65;;
35901;SDS011;50775;44.112;12.316;2022-07-21T00:03:22;4.32;;;2.65;;
35901;SDS011;50775;44.112;12.316;2022-07-21T00:05:48;5.65;;;2.40;;
35901;SDS011;50775;44.112;12.316;2022-07-21T00:08:14;3.10;;;2.40;;
35901;SDS011;50775;44.112;12.316;2022-07-21T00:10:40;3.88;;;2.40;;
35901;SDS011;50775;44.112;12.316;2022-07-21T00:13:06;5.53;;;2.60;;
35901;SDS011;50775;44.112;12.316;2022-07-21T00:15:32;3.50;;;2.55;;
35901;SDS011;50775;44.112;12.316;2022-07-21T00:17:58;6.40;;;2.70;;
35901;SDS011;50775;44.112;12.316;2022-07-21T00:20:25;3.58;;;2.80;;
35901;SDS011;50775;44.112;12.316;2022-07-21T00:22:53;4.40;;;2.90;;
35901;SDS011;50775;44.112;12.316;2022-07-21T00:25:19;3.22;;;2.60;;
35901;SDS011;50775;44.112;12.316;2022-07-21T00:27:45;3.60;;;2.55;;
35901;SDS011;50775;44.112;12.316;2022-07-21T00:30:11;3.75;;;2.80;;
35901;SDS011;50775;44.112;12.316;2022-07-21T00:32:38;3.90;;;2.60;;
35901;SDS011;50775;44.112;12.316;2022-07-21T00:35:05;4.88;;;2.92;;
35901;SDS011;50775;44.112;12.316;2022-07-21T00:37:33;5.03;;;2.78;;
35901;SDS011;50775;44.112;12.316;2022-07-21T00:39:58;5.32;;;2.90;;
35901;SDS011;50775;44.112;12.316;2022-07-21T00:42:28;3.17;;;2.63;;
35901;SDS011;50775;44.112;12.316;2022-07-21T00:44:56;4.22;;;2.80;;
35901;SDS011;50775;44.112;12.316;2022-07-21T00:47:23;4.28;;;2.95;;
35901;SDS011;50775;44.112;12.316;2022-07-21T00:49:50;5.32;;;3.00;;
35901;SDS011;50775;44.112;12.316;2022-07-21T00:52:16;5.05;;;3.15;;
35901;SDS011;50775;44.112;12.316;2022-07-21T00:54:42;3.65;;;2.88;;
35901;SDS011;50775;44.112;12.316;2022-07-21T00:57:09;5.78;;;3.00;;
35901;SDS011;50775;44.112;12.316;2022-07-21T00:59:36;4.40;;;2.95;;
35901;SDS011;50775;44.112;12.316;2022-07-21T01:02:02;4.90;;;3.22;;
35901;SDS011;50775;44.112;12.316;2022-07-21T01:04:28;4.78;;;3.10;;
35901;SDS011;50775;44.112;12.316;2022-07-21T01:06:54;5.13;;;3.03;;
35901;SDS011;50775;44.112;12.316;2022-07-21T01:09:20;3.78;;;2.85;;
35901;SDS011;50775;44.112;12.316;2022-07-21T01:11:48;4.60;;;3.10;;
35901;SDS011;50775;44.112;12.316;2022-07-21T01:14:14;4.70;;;3.20;;
35901;SDS011;50775;44.112;12.316;2022-07-21T01:16:41;4.28;;;3.20;;
35901;SDS011;50775;44.112;12.316;2022-07-21T01:19:08;5.90;;;3.13;;
35901;SDS011;50775;44.112;12.316;2022-07-21T01:21:38;4.68;;;3.20;;
35901;SDS011;50775;44.112;12.316;2022-07-21T01:24:07;4.85;;;2.95;;
35901;SDS011;50775;44.112;12.316;2022-07-21T01:26:52;3.80;;;3.00;;
35901;SDS011;50775;44.112;12.316;2022-07-21T01:29:19;6.50;;;3.35;;
35901;SDS011;50775;44.112;12.316;2022-07-21T01:31:46;5.40;;;3.45;;
35901;SDS011;50775;44.112;12.316;2022-07-21T01:34:13;3.45;;;2.85;;
35901;SDS011;50775;44.112;12.316;2022-07-21T01:36:39;5.72;;;3.40;;
35901;SDS011;50775;44.112;12.316;2022-07-21T01:39:07;4.13;;;3.00;;
35901;SDS011;50775;44.112;12.316;2022-07-21T01:41:52;4.40;;;3.35;;
35901;SDS011;50775;44.112;12.316;2022-07-21T01:44:18;4.03;;;2.97;;
35901;SDS011;50775;44.112;12.316;2022-07-21T01:46:44;5.22;;;3.10;;
35901;SDS011;50775;44.112;12.316;2022-07-21T01:49:14;5.95;;;3.47;;
35901;SDS011;50775;44.112;12.316;2022-07-21T01:51:41;7.68;;;3.20;;
35901;SDS011;50775;44.112;12.316;2022-07-21T01:54:08;5.35;;;3.42;;
35901;SDS011;50775;44.112;12.316;2022-07-21T01:56:35;4.28;;;3.25;;
35901;SDS011;50775;44.112;12.316;2022-07-21T01:59:02;6.60;;;3.53;;
35901;SDS011;50775;44.112;12.316;2022-07-21T02:01:29;5.22;;;3.08;;
35901;SDS011;50775;44.112;12.316;2022-07-21T02:04:01;6.22;;;3.53;;
35901;SDS011;50775;44.112;12.316;2022-07-21T02:06:28;5.35;;;3.53;;
35901;SDS011;50775;44.112;12.316;2022-07-21T02:08:54;4.82;;;3.22;;
35901;SDS011;50775;44.112;12.316;2022-07-21T02:11:20;5.43;;;3.47;;
35901;SDS011;50775;44.112;12.316;2022-07-21T02:13:46;5.00;;;3.38;;
35901;SDS011;50775;44.112;12.316;2022-07-21T02:16:12;6.72;;;3.15;;
35901;SDS011;50775;44.112;12.316;2022-07-21T02:18:38;5.68;;;3.35;;
35901;SDS011;50775;44.112;12.316;2022-07-21T02:21:05;4.82;;;3.40;;
35901;SDS011;50775;44.112;12.316;2022-07-21T02:23:31;5.45;;;3.30;;
35901;SDS011;50775;44.112;12.316;2022-07-21T02:25:57;3.85;;;3.08;;
35901;SDS011;50775;44.112;12.316;2022-07-21T02:28:23;5.20;;;3.40;;
35901;SDS011;50775;44.112;12.316;2022-07-21T02:30:49;5.85;;;3.55;;
35901;SDS011;50775;44.112;12.316;2022-07-21T02:33:15;7.40;;;3.65;;
35901;SDS011;50775;44.112;12.316;2022-07-21T02:35:42;3.92;;;3.40;;
35901;SDS011;50775;44.112;12.316;2022-07-21T02:38:08;4.60;;;3.35;;
35901;SDS011;50775;44.112;12.316;2022-07-21T02:40:34;5.32;;;3.55;;
35901;SDS011;50775;44.112;12.316;2022-07-21T02:43:00;4.45;;;3.30;;
35901;SDS011;50775;44.112;12.316;2022-07-21T02:45:26;5.57;;;3.70;;
35901;SDS011;50775;44.112;12.316;2022-07-21T02:47:56;7.30;;;3.90;;
35901;SDS011;50775;44.112;12.316;2022-07-21T02:50:27;5.97;;;3.67;;
35901;SDS011;50775;44.112;12.316;2022-07-21T02:52:56;5.57;;;3.80;;
35901;SDS011;50775;44.112;12.316;2022-07-21T02:55:22;5.88;;;3.88;;
35901;SDS011;50775;44.112;12.316;2022-07-21T02:57:49;4.90;;;3.67;;
35901;SDS011;50775;44.112;12.316;2022-07-21T03:00:27;4.90;;;3.67;;
35901;SDS011;50775;44.112;12.316;2022-07-21T03:02:53;5.07;;;3.80;;
35901;SDS011;50775;44.112;12.316;2022-07-21T03:05:19;7.95;;;3.80;;
35901;SDS011;50775;44.112;12.316;2022-07-21T03:07:45;7.88;;;3.70;;
35901;SDS011;50775;44.112;12.316;2022-07-21T03:10:10;6.38;;;3.63;;
35901;SDS011;50775;44.112;12.316;2022-07-21T03:12:36;5.25;;;4.05;;
35901;SDS011;50775;44.112;12.316;2022-07-21T03:15:02;5.55;;;3.90;;
35901;SDS011;50775;44.112;12.316;2022-07-21T03:17:28;6.35;;;3.80;;
35901;SDS011;50775;44.112;12.316;2022-07-21T03:19:54;5.53;;;3.60;;
35901;SDS011;50775;44.112;12.316;2022-07-21T03:22:19;6.60;;;3.95;;
35901;SDS011;50775;44.112;12.316;2022-07-21T03:24:45;5.95;;;4.13;;
35901;SDS011;50775;44.112;12.316;2022-07-21T03:27:11;8.43;;;4.10;;
35901;SDS011;50775;44.112;12.316;2022-07-21T03:29:37;7.10;;;4.03;;
35901;SDS011;50775;44.112;12.316;2022-07-21T03:32:02;6.93;;;4.13;;
35901;SDS011;50775;44.112;12.316;2022-07-21T03:34:28;6.25;;;4.28;;
35901;SDS011;50775;44.112;12.316;2022-07-21T03:36:54;6.95;;;4.13;;
35901;SDS011;50775;44.112;12.316;2022-07-21T03:39:19;8.90;;;4.00;;
35901;SDS011;50775;44.112;12.316;2022-07-21T03:41:45;5.40;;;3.85;;
35901;SDS011;50775;44.112;12.316;2022-07-21T03:44:11;4.70;;;3.83;;
35901;SDS011;50775;44.112;12.316;2022-07-21T03:46:37;6.25;;;3.88;;
35901;SDS011;50775;44.112;12.316;2022-07-21T03:49:02;6.28;;;4.03;;
35901;SDS011;50775;44.112;12.316;2022-07-21T03:51:28;5.20;;;4.00;;
35901;SDS011;50775;44.112;12.316;2022-07-21T03:53:54;5.70;;;3.95;;
35901;SDS011;50775;44.112;12.316;2022-07-21T03:56:19;6.57;;;4.15;;
35901;SDS011;50775;44.112;12.316;2022-07-21T03:58:45;6.45;;;4.22;;
35901;SDS011;50775;44.112;12.316;2022-07-21T04:01:11;7.05;;;3.90;;
35901;SDS011;50775;44.112;12.316;2022-07-21T04:03:36;5.75;;;3.95;;
35901;SDS011;50775;44.112;12.316;2022-07-21T04:06:02;6.07;;;4.07;;
35901;SDS011;50775;44.112;12.316;2022-07-21T04:08:28;5.40;;;3.88;;
35901;SDS011;50775;44.112;12.316;2022-07-21T04:10:53;5.25;;;3.78;;
35901;SDS011;50775;44.112;12.316;2022-07-21T04:13:19;8.05;;;3.78;;
35901;SDS011;50775;44.112;12.316;2022-07-21T04:15:45;7.30;;;4.10;;
35901;SDS011;50775;44.112;12.316;2022-07-21T04:18:11;6.18;;;3.80;;
35901;SDS011;50775;44.112;12.316;2022-07-21T04:20:37;7.82;;;4.20;;
35901;SDS011;50775;44.112;12.316;2022-07-21T04:23:03;5.68;;;3.80;;
35901;SDS011;50775;44.112;12.316;2022-07-21T04:25:30;6.70;;;4.30;;
35901;SDS011;50775;44.112;12.316;2022-07-21T04:27:56;5.25;;;4.03;;
35901;SDS011;50775;44.112;12.316;2022-07-21T04:30:24;5.90;;;3.88;;
35901;SDS011;50775;44.112;12.316;2022-07-21T04:32:49;7.43;;;4.30;;
35901;SDS011;50775;44.112;12.316;2022-07-21T04:35:17;7.35;;;4.35;;
35901;SDS011;50775;44.112;12.316;2022-07-21T04:37:44;5.53;;;4.32;;
35901;SDS011;50775;44.112;12.316;2022-07-21T04:40:11;6.50;;;4.28;;
35901;SDS011;50775;44.112;12.316;2022-07-21T04:42:37;4.90;;;3.80;;
35901;SDS011;50775;44.112;12.316;2022-07-21T04:45:04;5.65;;;4.20;;
35901;SDS011;50775;44.112;12.316;2022-07-21T04:47:31;6.10;;;4.18;;
35901;SDS011;50775;44.112;12.316;2022-07-21T04:49:57;7.18;;;3.80;;
35901;SDS011;50775;44.112;12.316;2022-07-21T04:52:22;5.78;;;4.05;;
35901;SDS011;50775;44.112;12.316;2022-07-21T04:54:48;5.22;;;3.92;;
35901;SDS011;50775;44.112;12.316;2022-07-21T04:57:15;5.68;;;4.38;;
35901;SDS011;50775;44.112;12.316;2022-07-21T04:59:41;5.72;;;4.13;;
35901;SDS011;50775;44.112;12.316;2022-07-21T05:02:06;6.05;;;4.13;;
35901;SDS011;50775;44.112;12.316;2022-07-21T05:04:32;5.68;;;3.83;;
35901;SDS011;50775;44.112;12.316;2022-07-21T05:06:58;5.18;;;4.03;;
35901;SDS011;50775;44.112;12.316;2022-07-21T05:09:24;5.97;;;4.15;;
35901;SDS011;50775;44.112;12.316;2022-07-21T05:11:49;6.30;;;4.38;;
35901;SDS011;50775;44.112;12.316;2022-07-21T05:14:15;5.18;;;3.90;;
35901;SDS011;50775;44.112;12.316;2022-07-21T05:16:41;6.55;;;4.32;;
35901;SDS011;50775;44.112;12.316;2022-07-21T05:19:07;5.60;;;4.13;;
35901;SDS011;50775;44.112;12.316;2022-07-21T05:21:33;6.60;;;4.10;;
35901;SDS011;50775;44.112;12.316;2022-07-21T05:23:59;6.05;;;4.10;;
35901;SDS011;50775;44.112;12.316;2022-07-21T05:26:24;5.80;;;4.00;;
35901;SDS011;50775;44.112;12.316;2022-07-21T05:28:50;6.38;;;4.10;;
35901;SDS011;50775;44.112;12.316;2022-07-21T05:31:16;7.22;;;4.07;;
35901;SDS011;50775;44.112;12.316;2022-07-21T05:33:41;6.35;;;4.05;;
35901;SDS011;50775;44.112;12.316;2022-07-21T05:36:07;7.78;;;4.00;;
35901;SDS011;50775;44.112;12.316;2022-07-21T05:38:33;6.05;;;4.00;;
35901;SDS011;50775;44.112;12.316;2022-07-21T05:40:59;8.25;;;4.22;;
35901;SDS011;50775;44.112;12.316;2022-07-21T05:43:25;6.85;;;4.00;;
35901;SDS011;50775;44.112;12.316;2022-07-21T05:45:52;6.90;;;4.20;;
35901;SDS011;50775;44.112;12.316;2022-07-21T05:48:17;6.47;;;4.07;;
35901;SDS011;50775;44.112;12.316;2022-07-21T05:50:43;9.60;;;4.50;;
35901;SDS011;50775;44.112;12.316;2022-07-21T05:53:09;6.28;;;4.35;;
35901;SDS011;50775;44.112;12.316;2022-07-21T05:55:35;5.20;;;3.88;;
35901;SDS011;50775;44.112;12.316;2022-07-21T05:58:00;6.00;;;3.92;;
35901;SDS011;50775;44.112;12.316;2022-07-21T06:00:26;5.68;;;4.15;;
35901;SDS011;50775;44.112;12.316;2022-07-21T06:02:52;5.43;;;4.00;;
35901;SDS011;50775;44.112;12.316;2022-07-21T06:05:17;7.70;;;4.50;;
35901;SDS011;50775;44.112;12.316;2022-07-21T06:07:43;6.03;;;4.03;;
35901;SDS011;50775;44.112;12.316;2022-07-21T06:10:09;6.97;;;4.43;;
35901;SDS011;50775;44.112;12.316;2022-07-21T06:12:35;5.72;;;3.72;;
35901;SDS011;50775;44.112;12.316;2022-07-21T06:15:01;6.18;;;3.97;;
35901;SDS011;50775;44.112;12.316;2022-07-21T06:17:28;6.18;;;4.10;;
35901;SDS011;50775;44.112;12.316;2022-07-21T06:19:57;6.50;;;4.03;;
35901;SDS011;50775;44.112;12.316;2022-07-21T06:22:23;6.68;;;4.00;;
35901;SDS011;50775;44.112;12.316;2022-07-21T06:24:49;6.68;;;3.70;;
35901;SDS011;50775;44.112;12.316;2022-07-21T06:27:15;9.02;;;4.07;;
35901;SDS011;50775;44.112;12.316;2022-07-21T06:29:41;6.75;;;4.25;;
35901;SDS011;50775;44.112;12.316;2022-07-21T06:32:07;7.63;;;3.60;;
35901;SDS011;50775;44.112;12.316;2022-07-21T06:34:32;8.77;;;4.07;;
35901;SDS011;50775;44.112;12.316;2022-07-21T06:36:58;6.35;;;3.85;;
35901;SDS011;50775;44.112;12.316;2022-07-21T06:39:24;6.15;;;3.53;;
35901;SDS011;50775;44.112;12.316;2022-07-21T06:41:50;6.32;;;3.60;;
35901;SDS011;50775;44.112;12.316;2022-07-21T06:44:15;7.82;;;4.20;;
35901;SDS011;50775;44.112;12.316;2022-07-21T06:46:41;6.20;;;3.97;;
35901;SDS011;50775;44.112;12.316;2022-07-21T06:49:07;8.25;;;3.72;;
35901;SDS011;50775;44.112;12.316;2022-07-21T06:51:33;6.10;;;3.90;;
35901;SDS011;50775;44.112;12.316;2022-07-21T06:53:58;5.20;;;3.88;;
35901;SDS011;50775;44.112;12.316;2022-07-21T06:56:24;5.38;;;3.63;;
35901;SDS011;50775;44.112;12.316;2022-07-21T06:58:50;7.82;;;3.85;;
35901;SDS011;50775;44.112;12.316;2022-07-21T07:01:15;7.40;;;3.80;;
35901;SDS011;50775;44.112;12.316;2022-07-21T07:03:43;6.10;;;3.70;;
35901;SDS011;50775;44.112;12.316;2022-07-21T07:06:09;6.85;;;3.60;;
35901;SDS011;50775;44.112;12.316;2022-07-21T07:08:36;6.70;;;3.72;;
35901;SDS011;50775;44.112;12.316;2022-07-21T07:11:03;7.72;;;3.97;;
35901;SDS011;50775;44.112;12.316;2022-07-21T07:13:29;4.82;;;3.67;;
35901;SDS011;50775;44.112;12.316;2022-07-21T07:15:55;5.60;;;3.72;;
35901;SDS011;50775;44.112;12.316;2022-07-21T07:18:21;7.15;;;3.40;;
35901;SDS011;50775;44.112;12.316;2022-07-21T07:20:49;4.65;;;3.72;;
35901;SDS011;50775;44.112;12.316;2022-07-21T07:23:15;5.78;;;3.80;;
35901;SDS011;50775;44.112;12.316;2022-07-21T07:25:41;5.60;;;3.58;;
35901;SDS011;50775;44.112;12.316;2022-07-21T07:28:07;5.30;;;3.28;;
35901;SDS011;50775;44.112;12.316;2022-07-21T07:30:34;6.63;;;3.78;;
35901;SDS011;50775;44.112;12.316;2022-07-21T07:32:59;5.53;;;3.75;;
35901;SDS011;50775;44.112;12.316;2022-07-21T07:35:25;6.45;;;3.70;;
35901;SDS011;50775;44.112;12.316;2022-07-21T07:37:51;4.82;;;3.60;;
35901;SDS011;50775;44.112;12.316;2022-07-21T07:40:19;4.88;;;3.45;;
35901;SDS011;50775;44.112;12.316;2022-07-21T07:42:46;5.10;;;3.83;;
35901;SDS011;50775;44.112;12.316;2022-07-21T07:45:13;4.35;;;3.40;;
35901;SDS011;50775;44.112;12.316;2022-07-21T07:47:39;8.02;;;3.70;;
35901;SDS011;50775;44.112;12.316;2022-07-21T07:50:06;5.20;;;3.58;;
35901;SDS011;50775;44.112;12.316;2022-07-21T07:52:34;6.35;;;3.40;;
35901;SDS011;50775;44.112;12.316;2022-07-21T07:55:01;5.55;;;3.35;;
35901;SDS011;50775;44.112;12.316;2022-07-21T07:57:30;5.75;;;3.30;;
35901;SDS011;50775;44.112;12.316;2022-07-21T07:59:55;5.00;;;3.30;;
35901;SDS011;50775;44.112;12.316;2022-07-21T08:02:21;4.95;;;3.40;;
35901;SDS011;50775;44.112;12.316;2022-07-21T08:04:47;6.03;;;3.60;;
35901;SDS011;50775;44.112;12.316;2022-07-21T08:07:12;4.25;;;3.40;;
35901;SDS011;50775;44.112;12.316;2022-07-21T08:09:39;4.18;;;3.13;;
35901;SDS011;50775;44.112;12.316;2022-07-21T08:12:05;4.35;;;3.22;;
35901;SDS011;50775;44.112;12.316;2022-07-21T08:14:31;4.32;;;3.10;;
35901;SDS011;50775;44.112;12.316;2022-07-21T08:16:57;4.80;;;3.30;;
35901;SDS011;50775;44.112;12.316;2022-07-21T08:19:24;4.53;;;3.40;;
35901;SDS011;50775;44.112;12.316;2022-07-21T08:21:50;5.50;;;3.30;;
35901;SDS011;50775;44.112;12.316;2022-07-21T08:24:16;4.72;;;3.33;;
35901;SDS011;50775;44.112;12.316;2022-07-21T08:26:41;5.15;;;3.33;;
35901;SDS011;50775;44.112;12.316;2022-07-21T08:29:07;5.85;;;3.47;;
35901;SDS011;50775;44.112;12.316;2022-07-21T08:31:33;5.60;;;3.55;;
35901;SDS011;50775;44.112;12.316;2022-07-21T08:33:58;4.93;;;3.10;;
35901;SDS011;50775;44.112;12.316;2022-07-21T08:36:24;4.28;;;3.13;;
35901;SDS011;50775;44.112;12.316;2022-07-21T08:38:50;4.80;;;3.20;;
35901;SDS011;50775;44.112;12.316;2022-07-21T08:41:15;5.00;;;3.05;;
35901;SDS011;50775;44.112;12.316;2022-07-21T08:43:41;4.65;;;3.00;;
35901;SDS011;50775;44.112;12.316;2022-07-21T08:46:08;4.82;;;3.13;;
35901;SDS011;50775;44.112;12.316;2022-07-21T08:48:34;4.25;;;3.13;;
35901;SDS011;50775;44.112;12.316;2022-07-21T08:51:01;5.85;;;3.17;;
35901;SDS011;50775;44.112;12.316;2022-07-21T08:53:27;4.68;;;3.33;;
35901;SDS011;50775;44.112;12.316;2022-07-21T08:55:54;4.65;;;3.10;;
35901;SDS011;50775;44.112;12.316;2022-07-21T08:58:20;5.35;;;3.15;;
35901;SDS011;50775;44.112;12.316;2022-07-21T09:00:46;5.30;;;3.20;;
35901;SDS011;50775;44.112;12.316;2022-07-21T09:06:03;3.13;;;2.83;;
35901;SDS011;50775;44.112;12.316;2022-07-21T09:08:36;4.15;;;3.08;;
35901;SDS011;50775;44.112;12.316;2022-07-21T09:13:38;3.50;;;2.83;;
35901;SDS011;50775;44.112;12.316;2022-07-21T09:16:05;4.88;;;2.90;;
35901;SDS011;50775;44.112;12.316;2022-07-21T09:18:31;3.47;;;2.80;;
35901;SDS011;50775;44.112;12.316;2022-07-21T09:20:57;4.30;;;2.80;;
35901;SDS011;50775;44.112;12.316;2022-07-21T09:23:25;7.47;;;3.50;;
35901;SDS011;50775;44.112;12.316;2022-07-21T09:25:52;5.75;;;3.10;;
35901;SDS011;50775;44.112;12.316;2022-07-21T09:28:21;4.90;;;2.97;;
35901;SDS011;50775;44.112;12.316;2022-07-21T09:33:25;6.18;;;3.00;;
35901;SDS011;50775;44.112;12.316;2022-07-21T09:38:30;4.75;;;3.17;;
35901;SDS011;50775;44.112;12.316;2022-07-21T09:48:47;4.90;;;3.13;;
35901;SDS011;50775;44.112;12.316;2022-07-21T09:51:27;4.25;;;2.83;;
35901;SDS011;50775;44.112;12.316;2022-07-21T09:56:31;3.85;;;2.85;;
35901;SDS011;50775;44.112;12.316;2022-07-21T09:58:58;4.65;;;2.90;;
35901;SDS011;50775;44.112;12.316;2022-07-21T10:01:26;5.47;;;2.92;;
35901;SDS011;50775;44.112;12.316;2022-07-21T10:03:53;4.78;;;2.78;;
35901;SDS011;50775;44.112;12.316;2022-07-21T10:06:21;5.43;;;2.97;;
35901;SDS011;50775;44.112;12.316;2022-07-21T10:08:53;3.78;;;2.80;;
35901;SDS011;50775;44.112;12.316;2022-07-21T10:11:23;4.45;;;2.88;;
35901;SDS011;50775;44.112;12.316;2022-07-21T10:13:50;4.03;;;3.05;;
35901;SDS011;50775;44.112;12.316;2022-07-21T10:16:16;6.13;;;2.90;;
35901;SDS011;50775;44.112;12.316;2022-07-21T10:18:57;4.30;;;2.97;;
35901;SDS011;50775;44.112;12.316;2022-07-21T10:24:11;5.38;;;2.83;;
35901;SDS011;50775;44.112;12.316;2022-07-21T10:32:15;5.18;;;3.10;;
35901;SDS011;50775;44.112;12.316;2022-07-21T10:34:42;5.35;;;3.00;;
35901;SDS011;50775;44.112;12.316;2022-07-21T10:37:09;4.35;;;2.70;;
35901;SDS011;50775;44.112;12.316;2022-07-21T10:39:35;3.92;;;2.80;;
35901;SDS011;50775;44.112;12.316;2022-07-21T10:42:14;4.82;;;2.60;;
35901;SDS011;50775;44.112;12.316;2022-07-21T10:44:41;3.33;;;2.58;;
35901;SDS011;50775;44.112;12.316;2022-07-21T10:47:21;4.20;;;2.60;;
35901;SDS011;50775;44.112;12.316;2022-07-21T10:57:44;4.97;;;2.58;;
35901;SDS011;50775;44.112;12.316;2022-07-21T11:00:19;4.15;;;2.47;;
35901;SDS011;50775;44.112;12.316;2022-07-21T11:02:52;4.38;;;2.42;;
35901;SDS011;50775;44.112;12.316;2022-07-21T11:05:22;4.13;;;2.47;;
35901;SDS011;50775;44.112;12.316;2022-07-21T11:10:35;3.97;;;2.50;;
35901;SDS011;50775;44.112;12.316;2022-07-21T11:13:09;4.68;;;2.58;;
35901;SDS011;50775;44.112;12.316;2022-07-21T11:15:45;3.65;;;2.55;;
35901;SDS011;50775;44.112;12.316;2022-07-21T11:18:23;4.38;;;2.55;;
35901;SDS011;50775;44.112;12.316;2022-07-21T11:26:25;5.97;;;2.20;;
35901;SDS011;50775;44.112;12.316;2022-07-21T11:29:05;3.47;;;2.30;;
35901;SDS011;50775;44.112;12.316;2022-07-21T11:34:09;3.70;;;2.30;;
35901;SDS011;50775;44.112;12.316;2022-07-21T11:36:35;4.45;;;2.20;;
35901;SDS011;50775;44.112;12.316;2022-07-21T11:39:04;3.75;;;2.50;;
35901;SDS011;50775;44.112;12.316;2022-07-21T11:41:33;4.25;;;2.22;;
35901;SDS011;50775;44.112;12.316;2022-07-21T11:44:02;3.28;;;2.25;;
35901;SDS011;50775;44.112;12.316;2022-07-21T11:46:29;3.95;;;2.70;;
35901;SDS011;50775;44.112;12.316;2022-07-21T11:49:10;4.07;;;2.33;;
35901;SDS011;50775;44.112;12.316;2022-07-21T11:51:37;5.57;;;2.45;;
35901;SDS011;50775;44.112;12.316;2022-07-21T11:54:02;3.38;;;2.30;;
35901;SDS011;50775;44.112;12.316;2022-07-21T11:56:35;4.00;;;2.28;;
35901;SDS011;50775;44.112;12.316;2022-07-21T11:59:10;4.15;;;2.20;;
35901;SDS011;50775;44.112;12.316;2022-07-21T12:01:59;2.83;;;2.00;;
35901;SDS011;50775;44.112;12.316;2022-07-21T12:04:44;4.13;;;2.33;;
35901;SDS011;50775;44.112;12.316;2022-07-21T12:10:04;3.50;;;2.20;;
35901;SDS011;50775;44.112;12.316;2022-07-21T12:12:36;4.00;;;2.10;;
35901;SDS011;50775;44.112;12.316;2022-07-21T12:15:11;3.00;;;2.10;;
35901;SDS011;50775;44.112;12.316;2022-07-21T12:17:49;4.37;;;2.23;;
35901;SDS011;50775;44.112;12.316;2022-07-21T12:20:27;2.83;;;2.10;;
35901;SDS011;50775;44.112;12.316;2022-07-21T12:22:59;4.22;;;2.30;;
35901;SDS011;50775;44.112;12.316;2022-07-21T12:25:34;4.15;;;2.20;;
35901;SDS011;50775;44.112;12.316;2022-07-21T12:28:05;4.38;;;2.30;;
35901;SDS011;50775;44.112;12.316;2022-07-21T12:30:34;3.75;;;2.15;;
35901;SDS011;50775;44.112;12.316;2022-07-21T12:33:12;4.10;;;2.28;;
35901;SDS011;50775;44.112;12.316;2022-07-21T12:35:43;3.88;;;1.98;;
35901;SDS011;50775;44.112;12.316;2022-07-21T12:38:13;4.47;;;2.00;;
35901;SDS011;50775;44.112;12.316;2022-07-21T12:40:41;3.40;;;2.00;;
35901;SDS011;50775;44.112;12.316;2022-07-21T12:43:15;3.40;;;2.15;;
35901;SDS011;50775;44.112;12.316;2022-07-21T12:45:44;4.38;;;2.05;;
35901;SDS011;50775;44.112;12.316;2022-07-21T12:48:10;5.32;;;2.17;;
35901;SDS011;50775;44.112;12.316;2022-07-21T12:50:38;3.50;;;2.03;;
35901;SDS011;50775;44.112;12.316;2022-07-21T12:53:05;3.75;;;2.25;;
35901;SDS011;50775;44.112;12.316;2022-07-21T12:55:35;2.83;;;2.17;;
35901;SDS011;50775;44.112;12.316;2022-07-21T12:58:01;3.67;;;2.13;;
35901;SDS011;50775;44.112;12.316;2022-07-21T13:00:28;2.78;;;1.90;;
35901;SDS011;50775;44.112;12.316;2022-07-21T13:02:54;3.90;;;1.98;;
35901;SDS011;50775;44.112;12.316;2022-07-21T13:05:22;2.83;;;2.00;;
35901;SDS011;50775;44.112;12.316;2022-07-21T13:07:49;3.20;;;2.00;;
35901;SDS011;50775;44.112;12.316;2022-07-21T13:10:16;2.95;;;2.10;;
35901;SDS011;50775;44.112;12.316;2022-07-21T13:12:42;2.38;;;2.00;;
35901;SDS011;50775;44.112;12.316;2022-07-21T13:15:08;3.78;;;1.95;;
35901;SDS011;50775;44.112;12.316;2022-07-21T13:17:34;3.95;;;2.10;;
35901;SDS011;50775;44.112;12.316;2022-07-21T13:19:59;2.47;;;1.98;;
35901;SDS011;50775;44.112;12.316;2022-07-21T13:22:25;3.00;;;2.08;;
35901;SDS011;50775;44.112;12.316;2022-07-21T13:24:51;3.08;;;2.00;;
35901;SDS011;50775;44.112;12.316;2022-07-21T13:27:17;3.47;;;2.00;;
35901;SDS011;50775;44.112;12.316;2022-07-21T13:29:42;3.97;;;2.20;;
35901;SDS011;50775;44.112;12.316;2022-07-21T13:32:09;3.60;;;2.10;;
35901;SDS011;50775;44.112;12.316;2022-07-21T13:34:35;3.50;;;2.30;;
35901;SDS011;50775;44.112;12.316;2022-07-21T13:37:01;3.08;;;2.05;;
35901;SDS011;50775;44.112;12.316;2022-07-21T13:39:26;3.53;;;2.00;;
35901;SDS011;50775;44.112;12.316;2022-07-21T13:41:54;4.45;;;2.00;;
35901;SDS011;50775;44.112;12.316;2022-07-21T13:44:21;3.15;;;1.98;;
35901;SDS011;50775;44.112;12.316;2022-07-21T13:46:47;3.45;;;1.83;;
35901;SDS011;50775;44.112;12.316;2022-07-21T13:49:14;3.33;;;2.20;;
35901;SDS011;50775;44.112;12.316;2022-07-21T13:51:39;3.65;;;2.00;;
35901;SDS011;50775;44.112;12.316;2022-07-21T13:54:05;7.07;;;2.28;;
35901;SDS011;50775;44.112;12.316;2022-07-21T13:56:40;4.75;;;2.05;;
35901;SDS011;50775;44.112;12.316;2022-07-21T13:59:06;2.42;;;2.00;;
35901;SDS011;50775;44.112;12.316;2022-07-21T14:01:32;2.85;;;2.05;;
35901;SDS011;50775;44.112;12.316;2022-07-21T14:03:58;3.28;;;1.80;;
35901;SDS011;50775;44.112;12.316;2022-07-21T14:06:24;3.00;;;1.83;;
35901;SDS011;50775;44.112;12.316;2022-07-21T14:08:49;2.67;;;1.90;;
35901;SDS011;50775;44.112;12.316;2022-07-21T14:11:16;4.60;;;1.90;;
35901;SDS011;50775;44.112;12.316;2022-07-21T14:13:42;2.28;;;1.70;;
35901;SDS011;50775;44.112;12.316;2022-07-21T14:16:08;2.72;;;1.83;;
35901;SDS011;50775;44.112;12.316;2022-07-21T14:18:33;3.50;;;2.00;;
35901;SDS011;50775;44.112;12.316;2022-07-21T14:20:59;2.13;;;1.90;;
35901;SDS011;50775;44.112;12.316;2022-07-21T14:23:25;2.65;;;1.73;;
35901;SDS011;50775;44.112;12.316;2022-07-21T14:25:51;2.33;;;1.88;;
35901;SDS011;50775;44.112;12.316;2022-07-21T14:28:18;2.75;;;1.90;;
35901;SDS011;50775;44.112;12.316;2022-07-21T14:30:44;4.95;;;2.10;;
35901;SDS011;50775;44.112;12.316;2022-07-21T14:33:10;2.72;;;1.80;;
35901;SDS011;50775;44.112;12.316;2022-07-21T14:35:36;2.28;;;1.75;;
35901;SDS011;50775;44.112;12.316;2022-07-21T14:38:02;4.40;;;1.90;;
35901;SDS011;50775;44.112;12.316;2022-07-21T14:40:28;2.90;;;1.70;;
35901;SDS011;50775;44.112;12.316;2022-07-21T14:42:57;2.72;;;1.80;;
35901;SDS011;50775;44.112;12.316;2022-07-21T14:45:23;4.68;;;2.00;;
35901;SDS011;50775;44.112;12.316;2022-07-21T14:47:49;3.05;;;1.88;;
35901;SDS011;50775;44.112;12.316;2022-07-21T14:50:17;4.30;;;2.00;;
35901;SDS011;50775;44.112;12.316;2022-07-21T14:52:43;2.90;;;2.00;;
35901;SDS011;50775;44.112;12.316;2022-07-21T14:55:08;3.10;;;1.98;;
35901;SDS011;50775;44.112;12.316;2022-07-21T14:57:35;2.20;;;1.77;;
35901;SDS011;50775;44.112;12.316;2022-07-21T15:00:01;5.68;;;2.00;;
35901;SDS011;50775;44.112;12.316;2022-07-21T15:02:28;2.50;;;1.90;;
35901;SDS011;50775;44.112;12.316;2022-07-21T15:04:54;2.75;;;2.00;;
35901;SDS011;50775;44.112;12.316;2022-07-21T15:07:20;2.45;;;1.80;;
35901;SDS011;50775;44.112;12.316;2022-07-21T15:09:45;2.78;;;1.88;;
35901;SDS011;50775;44.112;12.316;2022-07-21T15:12:11;6.00;;;1.80;;
35901;SDS011;50775;44.112;12.316;2022-07-21T15:14:37;2.30;;;2.10;;
35901;SDS011;50775;44.112;12.316;2022-07-21T15:17:03;1.95;;;1.70;;
35901;SDS011;50775;44.112;12.316;2022-07-21T15:19:29;4.60;;;2.10;;
35901;SDS011;50775;44.112;12.316;2022-07-21T15:21:55;2.65;;;2.00;;
35901;SDS011;50775;44.112;12.316;2022-07-21T15:24:21;3.00;;;1.85;;